Time;durP1;ratioP1;P1;durP2;ratioP2;P2;SDS_P1;SDS_P2;PMS_P1;PMS_P2;Temp;Humidity;BMP_temperature;BMP_pressure;BME280_temperature;BME280_humidity;BME280_pressure;Samples;Min_cycle;Max_cycle;Signal;HPM_P1;HPM_P2
2023/08/09 00:01:18;;;;;;;2.75;2.28;;;;;;;13.62;100.00;101165.25;5035398;28;20108;-73
2023/08/09 00:03:43;;;;;;;3.47;2.20;;;;;;;13.62;100.00;101167.91;5035373;28;20017;-73
2023/08/09 00:06:08;;;;;;;4.55;2.28;;;;;;;13.60;100.00;101161.97;5035431;28;20500;-73
2023/08/09 00:08:34;;;;;;;4.82;2.30;;;;;;;13.61;100.00;101158.25;5034156;28;20048;-73
2023/08/09 00:11:00;;;;;;;4.00;2.63;;;;;;;13.58;100.00;101162.16;5035082;28;20117;-73
2023/08/09 00:13:26;;;;;;;2.85;2.35;;;;;;;13.63;100.00;101169.59;5035005;28;20998;-73
2023/08/09 00:15:51;;;;;;;2.58;1.95;;;;;;;13.61;100.00;101174.31;5035290;28;20477;-73
2023/08/09 00:18:17;;;;;;;3.95;1.92;;;;;;;13.61;100.00;101162.78;5035402;28;20033;-73
2023/08/09 00:20:43;;;;;;;3.03;2.25;;;;;;;13.63;100.00;101172.25;5035527;28;20103;-73
2023/08/09 00:23:09;;;;;;;4.47;2.50;;;;;;;13.66;100.00;101160.31;5035249;28;20033;-73
2023/08/09 00:25:34;;;;;;;2.88;2.17;;;;;;;13.70;100.00;101158.84;5035180;28;20583;-73
2023/08/09 00:28:00;;;;;;;3.72;2.70;;;;;;;13.64;100.00;101148.97;5048533;28;20048;-73
2023/08/09 00:30:26;;;;;;;3.13;2.40;;;;;;;13.71;100.00;101161.31;5032114;28;20044;-73
2023/08/09 00:32:52;;;;;;;4.32;2.40;;;;;;;13.73;100.00;101169.97;5032069;28;20112;-73
2023/08/09 00:35:18;;;;;;;6.45;3.50;;;;;;;13.71;100.00;101173.91;5032076;28;20048;-73
2023/08/09 00:37:43;;;;;;;6.43;2.80;;;;;;;13.69;100.00;101173.28;5032005;28;20025;-73
2023/08/09 00:40:11;;;;;;;5.05;2.55;;;;;;;13.71;100.00;101171.22;5031843;28;20116;-73
2023/08/09 00:42:41;;;;;;;4.32;2.03;;;;;;;13.70;100.00;101170.41;5031812;28;20627;-73
2023/08/09 00:45:07;;;;;;;4.95;2.58;;;;;;;13.68;100.00;101167.09;5031832;28;20025;-73
2023/08/09 00:47:34;;;;;;;5.20;2.97;;;;;;;13.71;100.00;101176.59;5031895;28;20047;-73
2023/08/09 00:50:00;;;;;;;4.05;2.63;;;;;;;13.68;100.00;101171.66;5031706;28;20033;-73
2023/08/09 00:52:26;;;;;;;3.92;2.50;;;;;;;13.71;100.00;101163.19;5031556;28;20040;-73
2023/08/09 00:54:52;;;;;;;4.82;2.47;;;;;;;13.74;100.00;101168.13;5031601;28;20136;-73
2023/08/09 00:57:18;;;;;;;4.35;2.70;;;;;;;13.75;100.00;101161.72;5047111;28;20105;-73
2023/08/09 00:59:43;;;;;;;3.95;2.67;;;;;;;13.71;100.00;101176.59;5031590;28;20057;-73
2023/08/09 01:02:09;;;;;;;4.60;3.03;;;;;;;13.63;100.00;101171.44;5031456;28;20503;-73
2023/08/09 01:04:35;;;;;;;6.03;2.95;;;;;;;13.68;100.00;101177.00;5030234;28;20030;-73
2023/08/09 01:07:10;;;;;;;8.13;3.20;;;;;;;13.69;100.00;101189.38;5031551;28;20079;-73
2023/08/09 01:09:50;;;;;;;6.03;2.65;;;;;;;13.70;100.00;101189.16;5031131;28;20029;-73
2023/08/09 01:12:22;;;;;;;5.07;2.80;;;;;;;13.69;100.00;101192.03;5031385;28;20064;-73
2023/08/09 01:14:53;;;;;;;4.78;3.05;;;;;;;13.68;100.00;101187.72;5031479;28;20420;-73
2023/08/09 01:17:19;;;;;;;;;;;;;;;13.72;100.00;101187.06;5031736;28;20294;-73
2023/08/09 01:19:48;;;;;;;5.32;3.35;;;;;;;13.64;100.00;101184.63;5031347;28;19921;-73
2023/08/09 01:22:23;;;;;;;6.65;3.13;;;;;;;13.63;100.00;101185.66;5031005;28;20432;-73
2023/08/09 01:24:49;;;;;;;3.88;2.60;;;;;;;13.65;100.00;101190.78;5031098;28;20033;-73
2023/08/09 01:27:15;;;;;;;4.90;2.92;;;;;;;13.64;100.00;101192.66;5030799;28;20511;-73
2023/08/09 01:29:41;;;;;;;3.75;2.78;;;;;;;13.64;100.00;101189.16;5030917;28;20034;-74
2023/08/09 01:32:06;;;;;;;3.97;2.90;;;;;;;13.62;100.00;101191.22;5029615;28;20544;-73
2023/08/09 01:34:33;;;;;;;6.32;3.00;;;;;;;13.59;100.00;101187.09;5031004;28;20040;-73
2023/08/09 01:37:10;;;;;;;5.53;2.92;;;;;;;13.57;100.00;101194.53;5030882;28;20469;-73
2023/08/09 01:39:37;;;;;;;5.43;2.88;;;;;;;13.55;100.00;101199.28;5030583;28;20032;-73
2023/08/09 01:42:03;;;;;;;5.28;3.00;;;;;;;13.54;100.00;101194.94;5030770;28;20036;-73
2023/08/09 01:44:29;;;;;;;7.82;2.80;;;;;;;13.49;100.00;101195.59;5030712;28;20025;-73
2023/08/09 01:46:56;;;;;;;4.68;3.30;;;;;;;13.47;100.00;101196.81;5030786;28;20427;-73
2023/08/09 01:49:23;;;;;;;6.72;3.30;;;;;;;13.47;100.00;101199.50;5030666;28;20025;-73
2023/08/09 01:51:48;;;;;;;7.95;3.88;;;;;;;13.44;100.00;101198.06;5030619;28;20097;-73
2023/08/09 01:54:17;;;;;;;4.95;2.90;;;;;;;13.42;100.00;101200.13;5030370;28;20025;-74
2023/08/09 01:56:43;;;;;;;4.13;2.63;;;;;;;13.38;100.00;101207.72;5030519;28;20110;-74
2023/08/09 01:59:09;;;;;;;6.70;2.88;;;;;;;13.37;100.00;101203.41;5030494;28;20048;-73
2023/08/09 02:01:35;;;;;;;5.40;3.70;;;;;;;13.35;100.00;101204.63;5030429;28;20461;-73
2023/08/09 02:04:01;;;;;;;4.20;2.88;;;;;;;13.28;100.00;101204.66;5030363;28;20036;-73
2023/08/09 02:06:27;;;;;;;3.75;2.97;;;;;;;13.26;100.00;101213.91;5030410;28;20059;-74
2023/08/09 02:08:52;;;;;;;5.13;3.20;;;;;;;13.15;100.00;101213.47;5030248;28;20061;-73
2023/08/09 02:11:17;;;;;;;4.82;2.95;;;;;;;13.16;100.00;101215.13;5030275;28;20026;-74
2023/08/09 02:13:43;;;;;;;6.78;3.10;;;;;;;13.11;100.00;101208.72;5030179;28;20037;-74
2023/08/09 02:16:09;;;;;;;4.40;2.92;;;;;;;13.10;100.00;101218.63;5030207;28;20181;-73
2023/08/09 02:18:35;;;;;;;5.20;4.00;;;;;;;13.11;100.00;101230.16;5030151;28;20047;-73
2023/08/09 02:21:02;;;;;;;13.63;3.83;;;;;;;13.07;100.00;101219.03;5029992;28;20104;-73
2023/08/09 02:23:28;;;;;;;5.90;3.88;;;;;;;13.01;100.00;101217.16;5030190;28;20032;-73
2023/08/09 02:25:54;;;;;;;4.68;3.00;;;;;;;13.02;100.00;101226.84;5029944;28;20061;-73
2023/08/09 02:28:20;;;;;;;3.90;2.75;;;;;;;13.00;100.00;101225.41;5029951;28;20034;-73
2023/08/09 02:30:46;;;;;;;5.35;3.08;;;;;;;12.93;100.00;101217.34;5030026;28;20076;-73
2023/08/09 02:33:11;;;;;;;6.13;3.30;;;;;;;12.98;100.00;101227.44;5029784;28;20076;-73
2023/08/09 02:35:58;;;;;;;6.95;3.95;;;;;;;12.98;100.00;101224.78;5029947;28;20033;-75
2023/08/09 02:38:25;;;;;;;5.03;3.40;;;;;;;12.96;100.00;101233.00;5029983;28;20030;-73
2023/08/09 02:40:51;;;;;;;4.18;2.75;;;;;;;12.98;100.00;101230.94;5029884;28;20526;-73
2023/08/09 02:43:18;;;;;;;5.60;3.70;;;;;;;12.96;100.00;101230.31;5029616;28;20146;-73
2023/08/09 02:45:44;;;;;;;5.53;3.45;;;;;;;12.96;100.00;101245.56;5029673;28;20021;-73
2023/08/09 02:48:10;;;;;;;7.70;4.80;;;;;;;12.93;100.00;101247.63;5029514;28;20064;-73
2023/08/09 02:50:36;;;;;;;6.65;4.28;;;;;;;12.90;100.00;101244.53;5044645;28;20037;-73
2023/08/09 02:53:03;;;;;;;6.72;3.42;;;;;;;12.82;100.00;101248.22;5028859;28;20034;-73
2023/08/09 02:55:29;;;;;;;7.15;3.60;;;;;;;12.80;100.00;101250.25;5028161;28;20420;-73
2023/08/09 02:57:54;;;;;;;5.40;3.75;;;;;;;12.81;100.00;101245.72;5029157;28;20041;-73
2023/08/09 03:00:20;;;;;;;5.95;4.35;;;;;;;12.80;100.00;101249.44;5029498;28;20069;-73
2023/08/09 03:02:46;;;;;;;4.30;3.67;;;;;;;12.74;100.00;101251.06;5029153;28;20026;-73
2023/08/09 03:05:11;;;;;;;6.28;4.22;;;;;;;12.65;100.00;101253.13;5029378;28;20079;-72
2023/08/09 03:07:37;;;;;;;6.93;3.78;;;;;;;12.68;100.00;101259.88;5029424;28;20033;-73
2023/08/09 03:10:03;;;;;;;7.25;4.30;;;;;;;12.67;100.00;101266.28;5029477;28;20646;-73
2023/08/09 03:12:30;;;;;;;5.80;3.97;;;;;;;12.62;100.00;101264.19;5044686;28;20477;-73
2023/08/09 03:14:55;;;;;;;8.70;4.07;;;;;;;12.59;100.00;101267.28;5029855;28;20029;-73
2023/08/09 03:17:21;;;;;;;6.82;3.53;;;;;;;12.55;100.00;101251.81;5029277;28;20033;-73
2023/08/09 03:19:46;;;;;;;5.15;3.35;;;;;;;12.52;100.00;101252.22;5029157;28;20025;-74
2023/08/09 03:22:12;;;;;;;6.00;3.72;;;;;;;12.50;100.00;101252.44;5028949;28;20159;-73
2023/08/09 03:24:38;;;;;;;6.10;4.28;;;;;;;12.55;100.00;101262.50;5029350;28;20476;-73
2023/08/09 03:27:03;;;;;;;7.28;3.92;;;;;;;12.50;100.00;101261.28;5029144;28;20053;-73
2023/08/09 03:29:29;;;;;;;6.82;4.45;;;;;;;12.53;100.00;101278.78;5029226;28;20025;-73
2023/08/09 03:31:54;;;;;;;6.18;4.45;;;;;;;12.45;100.00;101273.59;5029223;28;20084;-73
2023/08/09 03:34:20;;;;;;;3.83;3.17;;;;;;;12.35;100.00;101275.81;5029129;28;20021;-73
2023/08/09 03:36:45;;;;;;;8.13;3.63;;;;;;;12.31;100.00;101285.25;5044248;28;20040;-73
2023/08/09 03:39:11;;;;;;;5.28;3.80;;;;;;;12.27;100.00;101292.84;5029090;28;20967;-73
2023/08/09 03:41:37;;;;;;;7.57;3.95;;;;;;;12.26;100.00;101286.69;5029026;28;20033;-73
2023/08/09 03:44:02;;;;;;;7.65;4.35;;;;;;;12.30;100.00;101289.75;5029058;28;20034;-73
2023/08/09 03:46:28;;;;;;;6.43;4.07;;;;;;;12.31;100.00;101299.44;5029063;28;20033;-73
2023/08/09 03:48:53;;;;;;;5.85;4.13;;;;;;;12.33;100.00;101301.91;5029001;28;20438;-73
2023/08/09 03:51:19;;;;;;;6.53;4.13;;;;;;;12.32;100.00;101303.78;5028953;28;20017;-73
2023/08/09 03:53:44;;;;;;;8.70;4.72;;;;;;;12.34;100.00;101301.75;5029083;28;20380;-73
2023/08/09 03:56:10;;;;;;;12.02;6.65;;;;;;;12.34;100.00;101295.53;5028890;28;20037;-73
2023/08/09 03:58:36;;;;;;;13.45;6.72;;;;;;;12.35;100.00;101297.22;5044198;28;20702;-73
2023/08/09 04:01:01;;;;;;;16.98;6.05;;;;;;;12.35;100.00;101303.38;5028737;28;20033;-72
2023/08/09 04:03:27;;;;;;;10.35;5.18;;;;;;;12.30;100.00;101302.31;5031205;28;20033;-73
2023/08/09 04:05:52;;;;;;;9.13;4.97;;;;;;;12.30;100.00;101316.50;5032567;28;20116;-73
2023/08/09 04:08:21;;;;;;;6.03;4.55;;;;;;;12.28;100.00;101313.19;5032742;28;20550;-73
2023/08/09 04:10:46;;;;;;;7.60;4.28;;;;;;;12.26;100.00;101318.75;5031870;28;20044;-73
2023/08/09 04:13:11;;;;;;;8.82;4.60;;;;;;;12.23;100.00;101313.78;5031671;28;20037;-73
2023/08/09 04:15:37;;;;;;;6.18;4.32;;;;;;;12.24;100.00;101317.31;5031072;28;20520;-73
2023/08/09 04:18:02;;;;;;;8.45;3.88;;;;;;;12.25;100.00;101324.28;5032280;28;20554;-72
2023/08/09 04:20:28;;;;;;;6.00;3.75;;;;;;;12.21;100.00;101313.19;5032213;28;20082;-72
2023/08/09 04:22:54;;;;;;;8.38;4.45;;;;;;;12.24;100.00;101320.81;5031360;28;20472;-73
2023/08/09 04:25:19;;;;;;;6.80;4.70;;;;;;;12.25;100.00;101330.47;5031211;28;20038;-73
2023/08/09 04:27:45;;;;;;;7.43;4.13;;;;;;;12.28;100.00;101331.94;5032090;28;20127;-73
2023/08/09 04:30:12;;;;;;;6.63;4.80;;;;;;;12.27;100.00;101317.72;5031977;28;20033;-72
2023/08/09 04:32:38;;;;;;;6.65;4.32;;;;;;;12.31;100.00;101328.03;5047055;28;20523;-73
2023/08/09 04:35:05;;;;;;;6.55;4.55;;;;;;;12.30;100.00;101324.53;5031995;28;20044;-72
2023/08/09 04:37:31;;;;;;;9.70;3.83;;;;;;;12.31;100.00;101336.06;5031853;28;20029;-72
2023/08/09 04:39:57;;;;;;;6.00;3.70;;;;;;;12.30;100.00;101337.91;5032013;28;20025;-73
2023/08/09 04:42:22;;;;;;;7.25;4.40;;;;;;;12.31;100.00;101331.53;5031814;28;20055;-72
2023/08/09 04:44:48;;;;;;;6.53;4.13;;;;;;;12.32;100.00;101332.38;5031824;28;20086;-72
2023/08/09 04:47:14;;;;;;;5.55;3.75;;;;;;;12.34;100.00;101343.69;5031784;28;20044;-72
2023/08/09 04:49:39;;;;;;;5.85;3.95;;;;;;;12.34;100.00;101339.19;5031719;28;20041;-73
2023/08/09 04:52:05;;;;;;;7.28;3.80;;;;;;;12.38;100.00;101345.78;5031772;28;20017;-73
2023/08/09 04:54:31;;;;;;;4.72;3.38;;;;;;;12.43;100.00;101354.03;5031866;28;20111;-73
2023/08/09 04:56:56;;;;;;;6.95;4.13;;;;;;;12.47;100.00;101349.97;5031743;28;20074;-73
2023/08/09 04:59:22;;;;;;;8.02;4.32;;;;;;;12.49;100.00;101345.22;5046718;28;20033;-73
2023/08/09 05:01:47;;;;;;;8.02;4.65;;;;;;;12.57;100.00;101346.91;5030052;28;20025;-73
2023/08/09 05:04:12;;;;;;;6.60;4.38;;;;;;;12.57;100.00;101335.38;5030328;28;20061;-73
2023/08/09 05:06:39;;;;;;;11.63;5.47;;;;;;;12.64;100.00;101350.47;5031427;28;20048;-73
2023/08/09 05:09:05;;;;;;;7.68;4.60;;;;;;;12.70;100.00;101359.53;5031199;28;20481;-73
2023/08/09 05:11:31;;;;;;;7.75;4.40;;;;;;;12.72;100.00;101358.31;5031250;28;20040;-73
2023/08/09 05:13:56;;;;;;;10.23;4.88;;;;;;;12.79;100.00;101366.41;5030728;28;20044;-73
2023/08/09 05:16:24;;;;;;;11.05;5.85;;;;;;;12.81;100.00;101358.16;5031079;28;20040;-73
2023/08/09 05:18:51;;;;;;;9.75;4.55;;;;;;;12.88;100.00;101367.88;5031375;28;20083;-73
2023/08/09 05:21:16;;;;;;;10.13;5.22;;;;;;;12.94;100.00;101368.91;5031130;28;20033;-73
2023/08/09 05:23:42;;;;;;;9.10;4.38;;;;;;;13.02;100.00;101371.44;5031480;28;21064;-73
2023/08/09 05:26:07;;;;;;;8.25;4.20;;;;;;;13.08;100.00;101365.28;5030801;28;20057;-73
2023/08/09 05:28:32;;;;;;;9.55;4.88;;;;;;;13.19;100.00;101371.91;5046249;28;20063;-73
2023/08/09 05:30:58;;;;;;;8.98;4.85;;;;;;;13.25;100.00;101376.44;5031112;28;20119;-73
2023/08/09 05:33:23;;;;;;;8.15;5.70;;;;;;;13.34;100.00;101379.81;5030906;28;20392;-73
2023/08/09 05:35:48;;;;;;;8.98;5.35;;;;;;;13.35;100.00;101384.97;5031017;28;20171;-73
2023/08/09 05:38:14;;;;;;;9.60;5.82;;;;;;;13.38;100.00;101381.88;5031015;28;20033;-73
2023/08/09 05:40:39;;;;;;;10.75;5.55;;;;;;;13.43;100.00;101389.31;5046443;28;20495;-73
2023/08/09 05:43:04;;;;;;;9.75;5.80;;;;;;;13.49;100.00;101385.00;5046958;28;20068;-73
2023/08/09 05:45:30;;;;;;;13.85;8.05;;;;;;;13.55;100.00;101394.91;5029190;28;20033;-74
2023/08/09 05:47:55;;;;;;;10.73;6.18;;;;;;;13.62;100.00;101387.69;5030261;28;20063;-73
2023/08/09 05:50:21;;;;;;;11.70;7.18;;;;;;;13.69;100.00;101379.69;5030630;28;20044;-74
2023/08/09 05:52:46;;;;;;;13.23;7.78;;;;;;;13.77;100.00;101380.31;5030638;28;20025;-73
2023/08/09 05:55:12;;;;;;;13.90;7.43;;;;;;;13.84;100.00;101391.03;5030493;28;20030;-73
2023/08/09 05:57:37;;;;;;;13.10;8.05;;;;;;;13.89;100.00;101393.13;5029091;28;20404;-73
2023/08/09 06:00:06;;;;;;;14.35;8.48;;;;;;;13.93;100.00;101380.94;5030613;28;20041;-73
2023/08/09 06:02:34;;;;;;;13.55;7.60;;;;;;;13.99;100.00;101391.69;5030268;28;20045;-73
2023/08/09 06:05:00;;;;;;;13.55;7.38;;;;;;;14.03;100.00;101384.03;5030482;28;20038;-73
2023/08/09 06:07:27;;;;;;;15.95;8.60;;;;;;;14.08;100.00;101394.16;5030269;28;20099;-73
2023/08/09 06:09:53;;;;;;;14.40;8.63;;;;;;;14.07;100.00;101393.34;5030291;28;20171;-73
2023/08/09 06:12:18;;;;;;;13.57;8.18;;;;;;;14.13;100.00;101400.53;5030339;28;20551;-73
2023/08/09 06:14:43;;;;;;;14.27;8.20;;;;;;;14.16;100.00;101402.81;5030327;28;20033;-73
2023/08/09 06:17:09;;;;;;;18.00;9.65;;;;;;;14.21;100.00;101412.94;5030137;28;20037;-74
2023/08/09 06:19:34;;;;;;;19.80;8.80;;;;;;;14.25;100.00;101412.31;5030161;28;20037;-73
2023/08/09 06:22:00;;;;;;;15.27;9.20;;;;;;;14.31;100.00;101418.69;5030072;28;20029;-73
2023/08/09 06:24:25;;;;;;;17.30;10.57;;;;;;;14.32;100.00;101424.88;5030497;28;20061;-73
2023/08/09 06:26:50;;;;;;;17.75;10.00;;;;;;;14.34;100.00;101418.28;5029065;28;20114;-73
2023/08/09 06:29:18;;;;;;;17.80;10.10;;;;;;;14.41;100.00;101431.72;5029936;28;20122;-75
2023/08/09 06:31:45;;;;;;;19.95;11.05;;;;;;;14.39;100.00;101428.41;5028606;28;20029;-75
2023/08/09 06:34:11;;;;;;;16.52;10.07;;;;;;;14.39;100.00;101426.53;5029990;28;20162;-74
2023/08/09 06:36:36;;;;;;;18.48;11.82;;;;;;;14.40;100.00;101433.53;5029872;28;20029;-75
2023/08/09 06:39:02;;;;;;;18.50;11.05;;;;;;;14.47;100.00;101434.38;5045226;28;20041;-74
2023/08/09 06:41:27;;;;;;;18.38;10.63;;;;;;;14.53;100.00;101434.59;5044878;28;20476;-74
2023/08/09 06:43:52;;;;;;;19.88;12.48;;;;;;;14.57;100.00;101443.91;5029797;28;20047;-74
2023/08/09 06:46:18;;;;;;;20.98;14.55;;;;;;;14.62;100.00;101442.25;5029599;28;20074;-74
2023/08/09 06:48:43;;;;;;;21.05;14.20;;;;;;;14.59;100.00;101439.13;5029895;28;20076;-75
2023/08/09 06:51:08;;;;;;;21.83;12.88;;;;;;;14.63;100.00;101449.25;5029816;28;20025;-74
2023/08/09 06:53:34;;;;;;;20.63;13.45;;;;;;;14.67;100.00;101447.81;5029764;28;20037;-74
2023/08/09 06:55:59;;;;;;;22.40;12.10;;;;;;;14.69;100.00;101448.41;5028400;28;20095;-74
2023/08/09 06:58:24;;;;;;;21.13;13.35;;;;;;;14.77;100.00;101463.47;5028504;28;20018;-74
2023/08/09 07:00:50;;;;;;;21.17;13.45;;;;;;;14.78;100.00;101465.13;5044705;28;20045;-74
2023/08/09 07:03:16;;;;;;;21.70;12.52;;;;;;;14.84;100.00;101463.47;5029224;28;20033;-74
2023/08/09 07:05:42;;;;;;;22.20;12.82;;;;;;;14.96;100.00;101464.47;5029275;28;20037;-73
2023/08/09 07:08:07;;;;;;;21.77;12.80;;;;;;;15.06;100.00;101466.72;5028215;28;20088;-73
2023/08/09 07:10:32;;;;;;;22.35;12.27;;;;;;;15.11;100.00;101465.03;5029294;28;20033;-74
2023/08/09 07:12:58;;;;;;;21.40;13.15;;;;;;;15.28;100.00;101461.91;5044510;28;20030;-75
2023/08/09 07:15:23;;;;;;;21.30;13.10;;;;;;;15.38;100.00;101459.59;5028678;28;20033;-74
2023/08/09 07:17:49;;;;;;;18.58;12.52;;;;;;;15.59;100.00;101468.34;5026713;28;20040;-74
2023/08/09 07:20:14;;;;;;;20.30;12.98;;;;;;;15.67;100.00;101477.03;5028482;28;20117;-74
2023/08/09 07:22:41;;;;;;;20.77;12.00;;;;;;;15.54;100.00;101467.16;5028632;28;20083;-74
2023/08/09 07:25:07;;;;;;;20.58;12.07;;;;;;;15.44;100.00;101474.84;5028947;28;20489;-74
2023/08/09 07:27:34;;;;;;;20.65;12.70;;;;;;;15.38;100.00;101469.50;5029028;28;20061;-74
2023/08/09 07:29:59;;;;;;;18.52;10.85;;;;;;;15.37;100.00;101471.34;5029346;28;20049;-74
2023/08/09 07:32:25;;;;;;;19.98;11.27;;;;;;;15.48;100.00;101472.53;5029129;28;20034;-73
2023/08/09 07:34:50;;;;;;;20.65;11.43;;;;;;;15.59;100.00;101479.97;5028967;28;20034;-72
2023/08/09 07:37:16;;;;;;;19.58;11.23;;;;;;;15.66;100.00;101482.59;5044656;28;20048;-72
2023/08/09 07:39:41;;;;;;;18.83;10.07;;;;;;;15.64;100.00;101480.16;5033061;28;20532;-73
2023/08/09 07:42:07;;;;;;;19.90;11.35;;;;;;;15.65;100.00;101479.09;5031494;28;20037;-73
2023/08/09 07:44:32;;;;;;;19.35;11.15;;;;;;;15.67;100.00;101490.47;5031652;28;20043;-73
2023/08/09 07:46:58;;;;;;;19.75;10.82;;;;;;;15.68;100.00;101491.28;5031561;28;20144;-73
2023/08/09 07:49:23;;;;;;;19.45;11.18;;;;;;;15.74;100.00;101499.34;5032841;28;20026;-73
2023/08/09 07:51:48;;;;;;;20.55;11.68;;;;;;;15.79;100.00;101501.38;5032818;28;20026;-74
2023/08/09 07:54:14;;;;;;;20.55;11.32;;;;;;;15.81;100.00;101493.13;5031024;28;20052;-74
2023/08/09 07:56:39;;;;;;;21.63;10.55;;;;;;;15.97;100.00;101500.66;5032724;28;20081;-74
2023/08/09 07:59:04;;;;;;;20.05;9.70;;;;;;;16.03;100.00;101507.03;5033373;28;20052;-74
2023/08/09 08:01:32;;;;;;;19.33;9.52;;;;;;;16.10;100.00;101497.06;5032181;28;20511;-73
2023/08/09 08:03:58;;;;;;;15.55;9.20;;;;;;;16.16;100.00;101507.78;5032289;28;20060;-73
2023/08/09 08:06:23;;;;;;;16.02;8.27;;;;;;;16.29;100.00;101516.81;5032157;28;20477;-73
2023/08/09 08:08:49;;;;;;;17.17;8.20;;;;;;;16.34;100.00;101516.97;5032311;28;20745;-74
2023/08/09 08:11:14;;;;;;;16.55;8.15;;;;;;;16.50;100.00;101497.59;5048058;28;20107;-73
2023/08/09 08:13:39;;;;;;;18.33;9.32;;;;;;;16.91;100.00;101515.06;5032360;28;20033;-73
2023/08/09 08:16:05;;;;;;;19.45;9.23;;;;;;;17.84;100.00;101519.41;5047586;28;20021;-73
2023/08/09 08:18:31;;;;;;;14.40;7.53;;;;;;;19.06;100.00;101537.00;5032122;28;20029;-73
2023/08/09 08:20:57;;;;;;;13.30;6.78;;;;;;;19.83;100.00;101534.06;5032132;28;20039;-73
2023/08/09 08:23:23;;;;;;;12.60;6.82;;;;;;;19.89;100.00;101533.06;5032216;28;20128;-73
2023/08/09 08:25:49;;;;;;;14.75;7.43;;;;;;;21.11;100.00;101536.16;5032327;28;21052;-73
2023/08/09 08:28:14;;;;;;;8.95;5.03;;;;;;;22.38;85.43;101541.44;5032181;28;20073;-73
2023/08/09 08:30:40;;;;;;;8.85;4.70;;;;;;;22.46;83.94;101545.56;5032260;28;20026;-73
2023/08/09 08:33:05;;;;;;;12.23;6.22;;;;;;;22.46;83.82;101546.38;5032359;28;20362;-73
2023/08/09 08:35:36;;;;;;;12.02;7.22;;;;;;;22.24;90.26;101546.47;5047548;28;20025;-73
2023/08/09 08:38:02;;;;;;;12.93;6.13;;;;;;;22.60;84.52;101545.94;5032110;28;20033;-74
2023/08/09 08:40:27;;;;;;;7.85;5.03;;;;;;;22.82;83.69;101540.38;5032088;28;20026;-74
2023/08/09 08:42:53;;;;;;;9.40;4.95;;;;;;;23.24;81.21;101545.84;5032291;28;20034;-74
2023/08/09 08:45:19;;;;;;;10.50;5.28;;;;;;;22.88;80.14;101550.25;5032204;28;20037;-74
2023/08/09 08:47:46;;;;;;;9.50;4.07;;;;;;;22.50;81.79;101552.13;5032134;28;20171;-74
2023/08/09 08:50:13;;;;;;;7.57;4.43;;;;;;;22.18;84.38;101554.81;5029759;28;20404;-74
2023/08/09 08:52:42;;;;;;;8.25;5.20;;;;;;;21.61;85.19;101558.78;5031789;28;20072;-74
2023/08/09 08:55:10;;;;;;;10.95;4.78;;;;;;;21.69;83.38;101563.78;5031955;28;20107;-74
2023/08/09 08:57:37;;;;;;;10.80;4.55;;;;;;;21.45;85.17;101558.59;5029810;28;20757;-75
2023/08/09 09:00:08;;;;;;;8.45;4.63;;;;;;;20.81;85.94;101562.84;5031605;28;20025;-74
2023/08/09 09:02:34;;;;;;;8.75;5.03;;;;;;;20.26;90.91;101553.50;5031152;28;20144;-73
2023/08/09 09:05:00;;;;;;;11.35;5.72;;;;;;;19.72;92.49;101561.97;5031215;28;20033;-73
2023/08/09 09:07:25;;;;;;;10.27;5.85;;;;;;;19.41;97.02;101565.88;5031600;28;20377;-75
2023/08/09 09:10:03;;;;;;;10.18;5.50;;;;;;;19.44;100.00;101560.00;5031407;28;20052;-74
2023/08/09 09:12:29;;;;;;;13.15;6.22;;;;;;;19.46;100.00;101558.69;5031519;28;20063;-74
2023/08/09 09:14:54;;;;;;;11.98;7.13;;;;;;;19.46;99.96;101557.88;5031301;28;20033;-74
2023/08/09 09:17:20;;;;;;;10.43;5.75;;;;;;;19.36;98.73;101565.78;5031182;28;20040;-74
2023/08/09 09:19:46;;;;;;;11.55;6.78;;;;;;;19.36;100.00;101566.63;5031026;28;20033;-72
2023/08/09 09:22:28;;;;;;;13.63;5.93;;;;;;;19.34;100.00;101570.63;5030799;28;20457;-72
2023/08/09 09:24:58;;;;;;;8.75;5.60;;;;;;;19.07;100.00;101581.09;5031051;28;20485;-72
2023/08/09 09:27:28;;;;;;;10.75;5.13;;;;;;;18.94;96.47;101584.84;5030758;28;20045;-72
2023/08/09 09:29:53;;;;;;;9.95;5.85;;;;;;;18.76;97.34;101583.09;5030954;28;20397;-73
2023/08/09 09:32:20;;;;;;;11.45;4.30;;;;;;;18.89;98.41;101576.63;5030869;28;20036;-74
2023/08/09 09:34:45;;;;;;;11.45;5.45;;;;;;;19.14;98.75;101579.09;5030471;28;20040;-72
2023/08/09 09:37:14;;;;;;;11.43;5.68;;;;;;;19.41;100.00;101579.41;5045678;28;20431;-72
2023/08/09 09:39:43;;;;;;;9.93;4.90;;;;;;;19.42;94.94;101578.38;5030358;28;20120;-72
2023/08/09 09:42:10;;;;;;;10.18;5.53;;;;;;;19.34;96.02;101582.25;5030603;28;20437;-70
2023/08/09 09:44:36;;;;;;;9.00;4.25;;;;;;;19.30;93.78;101578.38;5030686;28;20029;-71
2023/08/09 09:47:02;;;;;;;6.90;4.68;;;;;;;19.46;99.80;101580.34;5030584;28;20036;-71
2023/08/09 09:49:28;;;;;;;12.20;6.18;;;;;;;19.61;96.25;101579.03;5030109;28;20029;-72
2023/08/09 09:51:55;;;;;;;8.52;4.88;;;;;;;19.78;97.04;101587.25;5029716;28;20382;-72
2023/08/09 09:54:21;;;;;;;11.52;5.63;;;;;;;19.91;98.14;101585.09;5030141;28;20033;-72
2023/08/09 09:56:46;;;;;;;12.75;5.30;;;;;;;20.07;97.89;101575.38;5030477;28;20133;-71
2023/08/09 09:59:12;;;;;;;8.57;4.85;;;;;;;20.26;91.94;101578.69;5030413;28;20112;-72
2023/08/09 10:01:42;;;;;;;9.68;5.35;;;;;;;20.43;95.91;101575.19;5045180;28;21028;-72
2023/08/09 10:04:11;;;;;;;9.13;5.50;;;;;;;20.36;96.69;101573.47;5029320;28;20025;-71
2023/08/09 10:06:42;;;;;;;9.57;4.88;;;;;;;20.17;91.71;101573.91;5029472;28;20025;-72
2023/08/09 10:09:09;;;;;;;9.93;5.53;;;;;;;20.01;90.42;101579.03;5029475;28;20087;-72
2023/08/09 10:11:36;;;;;;;7.45;4.93;;;;;;;19.96;91.03;101578.13;5045119;28;20021;-72
2023/08/09 10:14:07;;;;;;;6.90;4.15;;;;;;;19.83;91.30;101579.22;5030078;28;20119;-72
2023/08/09 10:16:35;;;;;;;6.97;4.13;;;;;;;19.76;93.82;101568.56;5030019;28;20029;-72
2023/08/09 10:19:07;;;;;;;8.05;4.85;;;;;;;19.82;92.91;101580.31;5029846;28;20036;-72
2023/08/09 10:21:32;;;;;;;;;;;;;;;20.05;93.66;101579.41;5030007;28;20029;-71
2023/08/09 10:24:08;;;;;;;6.70;4.05;;;;;;;20.04;90.83;101577.72;5029612;28;19920;-72
2023/08/09 10:26:36;;;;;;;9.10;4.43;;;;;;;20.16;85.98;101577.69;5029657;28;20175;-72
2023/08/09 10:29:04;;;;;;;8.35;4.47;;;;;;;20.20;88.08;101584.25;5029692;28;20054;-71
2023/08/09 10:31:51;;;;;;;8.55;5.63;;;;;;;20.12;89.04;101574.63;5030040;28;20064;-71
2023/08/09 10:34:17;;;;;;;10.10;4.90;;;;;;;20.07;88.66;101585.41;5028608;28;20033;-71
2023/08/09 10:36:48;;;;;;;7.32;4.43;;;;;;;20.00;89.28;101587.41;5029594;28;20059;-71
2023/08/09 10:39:17;;;;;;;10.38;4.78;;;;;;;20.23;93.60;101594.63;5028301;28;20036;-71
2023/08/09 10:42:11;;;;;;;9.15;5.07;;;;;;;20.36;89.82;101595.13;5029562;28;20073;-71
2023/08/09 10:44:42;;;;;;;9.50;4.28;;;;;;;20.48;91.91;101600.47;5029623;28;20396;-71
2023/08/09 10:47:24;;;;;;;11.55;5.45;;;;;;;20.50;88.29;101597.53;5029586;28;20060;-72
2023/08/09 10:49:55;;;;;;;10.15;5.88;;;;;;;20.48;88.29;101597.78;5029483;28;20061;-71
2023/08/09 10:52:33;;;;;;;10.27;6.82;;;;;;;20.62;87.70;101586.66;5029422;28;20503;-71
2023/08/09 10:55:20;;;;;;;13.38;6.90;;;;;;;20.80;88.87;101591.81;5029201;28;20033;-72
2023/08/09 10:57:49;;;;;;;10.00;5.88;;;;;;;20.54;86.07;101596.84;5026723;28;20424;-73
2023/08/09 11:00:16;;;;;;;12.27;6.95;;;;;;;20.15;84.05;101585.00;5027962;28;20979;-72
2023/08/09 11:02:49;;;;;;;11.50;7.25;;;;;;;20.12;87.49;101590.88;5029076;28;20040;-72
2023/08/09 11:05:15;;;;;;;14.82;7.88;;;;;;;20.01;87.07;101597.19;5029271;28;20090;-72
2023/08/09 11:07:49;;;;;;;14.57;8.30;;;;;;;19.92;88.70;101586.72;5044486;28;20040;-72
2023/08/09 11:10:18;;;;;;;15.05;7.50;;;;;;;19.95;89.69;101582.72;5029104;28;20484;-72
2023/08/09 11:12:44;;;;;;;10.13;6.00;;;;;;;20.01;90.72;101589.88;5028531;28;20120;-72